createdAt,value
2023-04-29T00:02:20.983Z,38.51
2023-04-29T00:04:52.303Z,38.61
2023-04-29T00:07:22.510Z,38.63
2023-04-29T00:09:53.738Z,38.52
2023-04-29T00:12:24.195Z,38.56
2023-04-29T00:14:54.434Z,38.39
2023-04-29T00:17:24.984Z,38.55
2023-04-29T00:19:55.346Z,38.47
2023-04-29T00:22:25.543Z,38.75
2023-04-29T00:24:55.637Z,38.46
2023-04-29T00:27:25.844Z,38.66
2023-04-29T00:29:57.198Z,38.88
2023-04-29T00:32:27.352Z,38.69
2023-04-29T00:34:57.531Z,38.75
2023-04-29T00:37:27.657Z,38.83
2023-04-29T00:39:57.759Z,38.98
2023-04-29T00:42:29.411Z,39.05
2023-04-29T00:44:59.633Z,38.82
2023-04-29T00:47:29.899Z,38.86
2023-04-29T00:50:00.839Z,38.91
2023-04-29T00:52:34.373Z,38.94
2023-04-29T00:55:06.543Z,38.96
2023-04-29T00:57:36.729Z,39.29
2023-04-29T01:00:07.640Z,39.06
2023-04-29T01:02:38.768Z,39.07
2023-04-29T01:05:09.203Z,39.04
2023-04-29T01:08:18.385Z,39.54
2023-04-29T01:11:09.020Z,39.25
2023-04-29T01:13:50.914Z,39.51
2023-04-29T01:16:25.825Z,39.32
2023-04-29T01:19:01.632Z,39.13
2023-04-29T01:21:32.275Z,39.32
2023-04-29T01:24:02.650Z,39.36
2023-04-29T01:26:35.480Z,39.26
2023-04-29T01:29:28.949Z,39.66
2023-04-29T01:32:09.603Z,39.33
2023-04-29T01:34:44.512Z,39.58
2023-04-29T01:37:37.740Z,39.81
2023-04-29T01:40:24.242Z,39.74
2023-04-29T01:42:54.322Z,39.44
2023-04-29T01:45:25.951Z,39.50
2023-04-29T01:47:57.635Z,39.65
2023-04-29T01:50:27.849Z,39.65
2023-04-29T01:52:58.686Z,39.64
2023-04-29T01:55:28.808Z,39.76
2023-04-29T01:57:58.952Z,39.68
2023-04-29T02:00:29.090Z,39.49
2023-04-29T02:02:59.877Z,39.81
2023-04-29T02:05:34.682Z,39.78
2023-04-29T02:08:07.577Z,39.88
2023-04-29T02:10:37.751Z,39.87
2023-04-29T02:13:08.158Z,40.19
2023-04-29T02:15:38.588Z,40.18
2023-04-29T02:18:08.677Z,39.92
2023-04-29T02:20:39.454Z,40.25
2023-04-29T02:23:09.982Z,40.02
2023-04-29T02:25:40.266Z,40.26
2023-04-29T02:28:10.478Z,40.13
2023-04-29T02:30:40.773Z,40.32
2023-04-29T02:33:10.977Z,40.46
2023-04-29T02:35:41.225Z,40.30
2023-04-29T02:38:12.278Z,40.52
2023-04-29T02:40:43.515Z,40.47
2023-04-29T02:43:14.010Z,40.64
2023-04-29T02:45:44.809Z,40.68
2023-04-29T02:48:15.118Z,40.66
2023-04-29T02:50:45.242Z,40.84
2023-04-29T02:53:15.369Z,40.94
2023-04-29T02:55:45.493Z,40.93
2023-04-29T02:58:15.820Z,40.95
2023-04-29T03:00:46.057Z,40.92
2023-04-29T03:03:16.285Z,41.17
2023-04-29T03:05:46.504Z,41.17
2023-04-29T03:08:16.653Z,41.02
2023-04-29T03:10:46.831Z,41.23
2023-04-29T03:13:17.516Z,40.90
2023-04-29T03:15:47.587Z,41.08
2023-04-29T03:18:17.729Z,41.32
2023-04-29T03:20:47.863Z,41.20
2023-04-29T03:23:17.925Z,41.36
2023-04-29T03:25:48.172Z,41.19
2023-04-29T03:28:18.509Z,41.23
2023-04-29T03:30:48.638Z,41.12
2023-04-29T03:33:18.864Z,41.57
2023-04-29T03:35:49.055Z,41.43
2023-04-29T03:38:19.260Z,41.35
2023-04-29T03:40:49.412Z,41.09
2023-04-29T03:43:19.573Z,41.41
2023-04-29T03:45:49.824Z,41.50
2023-04-29T03:48:21.653Z,41.51
2023-04-29T03:50:52.250Z,41.37
2023-04-29T03:53:22.388Z,41.28
2023-04-29T03:55:52.496Z,41.44
2023-04-29T03:58:23.939Z,41.42
2023-04-29T04:00:55.248Z,41.66
2023-04-29T04:03:28.141Z,41.55
2023-04-29T04:05:58.413Z,41.54
2023-04-29T04:08:28.458Z,41.86
2023-04-29T04:11:03.236Z,41.79
2023-04-29T04:13:33.587Z,41.93
2023-04-29T04:16:03.980Z,41.82
2023-04-29T04:18:34.279Z,42.13
2023-04-29T04:21:09.167Z,41.97
2023-04-29T04:23:44.232Z,41.80
2023-04-29T04:26:14.425Z,42.14
2023-04-29T04:28:44.556Z,42.20
2023-04-29T04:31:17.761Z,42.03
2023-04-29T04:33:47.942Z,42.09
2023-04-29T04:36:18.148Z,42.24
2023-04-29T04:38:48.395Z,42.22
2023-04-29T04:41:18.545Z,42.54
2023-04-29T04:43:48.792Z,42.21
2023-04-29T04:46:19.514Z,42.28
2023-04-29T04:48:49.986Z,42.35
2023-04-29T04:51:21.038Z,42.50
2023-04-29T04:53:51.806Z,42.29
2023-04-29T04:56:22.406Z,42.24
2023-04-29T04:58:52.483Z,42.39
2023-04-29T05:01:22.665Z,42.46
2023-04-29T05:03:53.200Z,42.41
2023-04-29T05:06:23.670Z,42.44
2023-04-29T05:08:53.775Z,42.46
2023-04-29T05:11:23.973Z,42.18
2023-04-29T05:13:54.420Z,42.01
2023-04-29T05:16:24.699Z,42.04
2023-04-29T05:18:55.014Z,42.00
2023-04-29T05:21:25.182Z,42.13
2023-04-29T05:23:55.232Z,42.05
2023-04-29T05:26:25.394Z,42.00
2023-04-29T05:28:55.584Z,42.04
2023-04-29T05:31:26.568Z,41.97
2023-04-29T05:33:56.724Z,42.13
2023-04-29T05:36:28.188Z,41.90
2023-04-29T05:38:58.798Z,42.34
2023-04-29T05:41:28.935Z,42.22
2023-04-29T05:43:59.061Z,42.13
2023-04-29T05:46:29.233Z,42.09
2023-04-29T05:48:59.528Z,41.91
2023-04-29T05:51:29.651Z,42.28
2023-04-29T05:54:00.627Z,42.43
2023-04-29T05:56:31.536Z,42.15
2023-04-29T05:59:01.918Z,42.07
2023-04-29T06:01:33.121Z,42.46
2023-04-29T06:04:03.436Z,42.18
2023-04-29T06:06:34.625Z,42.23
2023-04-29T06:09:08.633Z,42.22
2023-04-29T06:11:45.167Z,42.22
2023-04-29T06:14:15.333Z,42.19
2023-04-29T06:16:45.564Z,42.17
2023-04-29T06:19:15.902Z,42.02
2023-04-29T06:21:46.094Z,42.24
2023-04-29T06:24:16.323Z,42.16
2023-04-29T06:26:46.502Z,42.04
2023-04-29T06:29:16.818Z,42.23
2023-04-29T06:31:46.962Z,42.52
2023-04-29T06:34:17.255Z,42.24
2023-04-29T06:36:47.374Z,42.50
2023-04-29T06:39:17.529Z,42.65
2023-04-29T06:41:47.644Z,42.21
2023-04-29T06:44:19.137Z,42.35
2023-04-29T06:46:49.292Z,42.28
2023-04-29T06:49:19.505Z,42.56
2023-04-29T06:51:49.593Z,42.48
2023-04-29T06:54:19.710Z,42.52
2023-04-29T06:56:49.896Z,42.24
2023-04-29T06:59:20.107Z,42.44
2023-04-29T07:01:52.295Z,42.19
2023-04-29T07:04:22.752Z,42.53
2023-04-29T07:06:54.161Z,42.61
2023-04-29T07:09:26.615Z,42.95
2023-04-29T07:11:56.865Z,42.51
2023-04-29T07:14:27.053Z,42.56
2023-04-29T07:16:57.236Z,42.44
2023-04-29T07:19:27.475Z,42.38
2023-04-29T07:21:58.282Z,42.26
2023-04-29T07:24:28.766Z,42.14
2023-04-29T07:26:59.046Z,42.24
2023-04-29T07:29:29.144Z,42.20
2023-04-29T07:31:59.370Z,42.14
2023-04-29T07:34:29.602Z,42.31
2023-04-29T07:36:59.740Z,42.22
2023-04-29T07:39:30.730Z,42.39
2023-04-29T07:42:01.018Z,42.53
2023-04-29T07:44:31.287Z,42.42
2023-04-29T07:47:01.418Z,42.49
2023-04-29T07:49:31.896Z,42.51
2023-04-29T07:52:02.577Z,42.61
2023-04-29T07:54:32.713Z,42.53
2023-04-29T07:57:04.892Z,42.30
2023-04-29T07:59:37.366Z,42.43
2023-04-29T08:02:07.522Z,42.29
2023-04-29T08:04:41.793Z,42.33
2023-04-29T08:07:12.981Z,42.41
2023-04-29T08:09:44.524Z,42.36
2023-04-29T08:12:14.890Z,42.57
2023-04-29T08:14:45.100Z,42.24
2023-04-29T08:17:15.386Z,42.38
2023-04-29T08:19:46.012Z,42.40
2023-04-29T08:22:16.195Z,42.83
2023-04-29T08:24:46.451Z,42.68
2023-04-29T08:27:16.686Z,42.69
2023-04-29T08:29:47.067Z,42.41
2023-04-29T08:32:17.441Z,42.29
2023-04-29T08:34:47.592Z,42.40
2023-04-29T08:37:18.708Z,42.29
2023-04-29T08:39:49.252Z,42.28
2023-04-29T08:42:26.076Z,42.25
2023-04-29T08:45:02.076Z,42.13
2023-04-29T08:47:34.323Z,42.08
2023-04-29T08:50:06.153Z,42.00
2023-04-29T08:52:36.576Z,41.86
2023-04-29T08:55:08.221Z,42.11
2023-04-29T08:57:40.097Z,41.69
2023-04-29T09:00:11.097Z,41.82
2023-04-29T09:02:49.650Z,42.11
2023-04-29T09:05:20.626Z,41.60
2023-04-29T09:07:51.947Z,41.88
2023-04-29T09:10:22.296Z,41.86
2023-04-29T09:12:58.309Z,41.68
2023-04-29T09:15:29.134Z,41.43
2023-04-29T09:17:59.460Z,41.60
2023-04-29T09:20:30.502Z,41.60
2023-04-29T09:23:03.789Z,41.04
2023-04-29T09:25:34.641Z,41.27
2023-04-29T09:28:31.267Z,40.24
2023-04-29T09:31:06.765Z,41.01
2023-04-29T09:33:59.151Z,40.72
2023-04-29T09:36:48.634Z,40.61
2023-04-29T09:39:23.264Z,40.87
2023-04-29T09:41:53.524Z,40.76
2023-04-29T09:44:26.214Z,41.14
2023-04-29T09:47:05.624Z,40.86
2023-04-29T09:49:38.922Z,40.84
2023-04-29T09:52:11.083Z,40.51
2023-04-29T09:54:42.844Z,40.77
2023-04-29T09:57:16.077Z,40.57
2023-04-29T09:59:47.069Z,40.65
2023-04-29T10:02:18.943Z,40.51
2023-04-29T10:04:57.769Z,40.08
2023-04-29T10:07:28.723Z,40.21
2023-04-29T10:09:58.943Z,40.28
2023-04-29T10:12:29.354Z,40.06
2023-04-29T10:15:36.916Z,39.54
2023-04-29T10:18:33.041Z,39.92
2023-04-29T10:21:09.769Z,40.01
2023-04-29T10:23:42.299Z,39.49
2023-04-29T10:26:15.054Z,39.48
2023-04-29T10:28:48.798Z,39.29
2023-04-29T10:31:20.625Z,39.44
2023-04-29T10:33:51.886Z,39.46
2023-04-29T10:36:23.809Z,39.28
2023-04-29T10:38:58.095Z,39.24
2023-04-29T10:41:42.973Z,38.83
2023-04-29T10:44:14.450Z,39.30
2023-04-29T10:46:45.024Z,38.97
2023-04-29T10:49:15.749Z,38.83
2023-04-29T10:51:46.047Z,38.89
2023-04-29T10:54:19.199Z,38.77
2023-04-29T10:56:51.736Z,38.49
2023-04-29T10:59:30.669Z,37.91
2023-04-29T11:02:00.900Z,38.16
2023-04-29T11:04:34.215Z,37.88
2023-04-29T11:07:05.366Z,37.36
2023-04-29T11:09:38.844Z,37.28
2023-04-29T11:12:13.765Z,37.07
2023-04-29T11:14:51.065Z,36.40
2023-04-29T11:17:21.721Z,37.05
2023-04-29T11:19:53.356Z,37.07
2023-04-29T11:22:27.286Z,37.23
2023-04-29T11:25:03.030Z,36.92
2023-04-29T11:27:38.805Z,36.29
2023-04-29T11:30:12.409Z,37.04
2023-04-29T11:32:45.481Z,37.00
2023-04-29T11:35:18.713Z,37.17
2023-04-29T11:37:48.943Z,37.41
2023-04-29T11:40:19.187Z,37.54
2023-04-29T11:42:50.824Z,37.68
2023-04-29T11:45:21.121Z,37.95
2023-04-29T11:47:55.341Z,38.12
2023-04-29T11:50:26.424Z,38.16
2023-04-29T11:52:59.296Z,38.12
2023-04-29T11:55:32.071Z,38.27
2023-04-29T11:58:04.394Z,38.71
2023-04-29T12:00:35.315Z,38.75
2023-04-29T12:03:15.515Z,38.77
2023-04-29T12:05:56.932Z,38.52
2023-04-29T12:08:31.116Z,38.62
2023-04-29T12:11:01.638Z,38.46
2023-04-29T12:13:31.917Z,38.35
2023-04-29T12:16:03.040Z,38.44
2023-04-29T12:18:33.493Z,38.64
2023-04-29T12:21:04.388Z,38.89
2023-04-29T12:23:36.264Z,38.96
2023-04-29T12:26:06.463Z,38.93
2023-04-29T12:28:36.668Z,39.08
2023-04-29T12:31:09.561Z,39.25
2023-04-29T12:33:44.455Z,38.98
2023-04-29T12:36:18.877Z,39.09
2023-04-29T12:38:49.847Z,39.02
2023-04-29T12:41:21.288Z,38.98
2023-04-29T12:43:51.654Z,39.08
2023-04-29T12:46:23.514Z,39.56
2023-04-29T12:48:53.794Z,39.54
2023-04-29T12:51:23.926Z,39.55
2023-04-29T12:53:54.113Z,39.75
2023-04-29T12:56:24.376Z,39.49
2023-04-29T12:58:54.568Z,39.58
2023-04-29T13:01:24.738Z,39.35
2023-04-29T13:03:57.551Z,39.63
2023-04-29T13:06:27.870Z,40.17
2023-04-29T13:08:58.497Z,40.37
2023-04-29T13:11:33.845Z,40.05
2023-04-29T13:14:06.740Z,39.83
2023-04-29T13:16:37.091Z,39.22
2023-04-29T13:19:24.682Z,39.30
2023-04-29T13:21:57.545Z,39.37
2023-04-29T13:24:27.743Z,39.30
2023-04-29T13:26:58.399Z,39.75
2023-04-29T13:29:28.630Z,39.98
2023-04-29T13:31:58.929Z,40.10
2023-04-29T13:34:29.136Z,39.98
2023-04-29T13:36:59.245Z,40.25
2023-04-29T13:39:29.445Z,39.94
2023-04-29T13:41:59.771Z,39.61
2023-04-29T13:44:36.034Z,39.88
2023-04-29T13:47:24.974Z,39.95
2023-04-29T13:55:50.007Z,40.26
2023-04-29T14:01:01.409Z,39.71
2023-04-29T14:03:18.821Z,39.93
2023-04-29T14:05:49.481Z,39.91
2023-04-29T14:08:19.698Z,40.11
2023-04-29T14:10:49.809Z,39.89
2023-04-29T14:13:20.058Z,39.88
2023-04-29T14:15:50.246Z,40.35
2023-04-29T14:18:20.707Z,40.07
2023-04-29T14:20:50.851Z,40.13
2023-04-29T14:23:21.814Z,40.15
2023-04-29T14:25:53.487Z,40.02
2023-04-29T14:28:24.757Z,40.29
2023-04-29T14:30:55.062Z,40.54
2023-04-29T14:33:25.408Z,40.44
2023-04-29T14:35:55.602Z,40.91
2023-04-29T14:38:25.827Z,41.04
2023-04-29T14:40:56.069Z,40.80
2023-04-29T14:43:26.521Z,40.81
2023-04-29T14:45:56.685Z,40.82
2023-04-29T14:48:27.022Z,40.64
2023-04-29T14:50:57.180Z,41.00
2023-04-29T14:53:27.333Z,41.02
2023-04-29T14:55:57.729Z,41.31
2023-04-29T14:58:28.422Z,41.58
2023-04-29T15:00:58.525Z,41.34
2023-04-29T15:03:28.880Z,41.64
2023-04-29T15:05:59.278Z,41.62
2023-04-29T15:08:29.849Z,41.62
2023-04-29T15:10:59.927Z,41.92
2023-04-29T15:13:31.489Z,42.14
2023-04-29T15:16:02.274Z,42.14
2023-04-29T15:18:32.540Z,42.46
2023-04-29T15:21:04.532Z,42.81
2023-04-29T15:23:34.775Z,43.00
2023-04-29T15:26:05.124Z,43.08
2023-04-29T15:28:35.281Z,43.68
2023-04-29T15:31:05.745Z,43.28
2023-04-29T15:33:36.797Z,43.61
2023-04-29T15:36:07.346Z,44.45
2023-04-29T15:38:37.461Z,45.61
2023-04-29T15:41:07.926Z,46.33
2023-04-29T15:43:40.372Z,47.14
2023-04-29T15:46:11.059Z,47.59
2023-04-29T15:48:41.418Z,48.26
2023-04-29T15:51:15.105Z,48.71
2023-04-29T15:53:45.345Z,48.85
2023-04-29T15:56:16.458Z,49.34
2023-04-29T15:58:47.462Z,49.54
2023-04-29T16:01:17.722Z,49.67
2023-04-29T16:03:48.157Z,49.82
2023-04-29T16:06:18.469Z,49.98
2023-04-29T16:08:50.268Z,49.98
2023-04-29T16:11:21.701Z,50.34
2023-04-29T16:13:51.959Z,50.62
2023-04-29T16:16:23.882Z,50.29
2023-04-29T16:18:54.280Z,50.40
2023-04-29T16:21:24.657Z,50.18
2023-04-29T16:23:55.068Z,49.94
2023-04-29T16:26:25.545Z,50.08
2023-04-29T16:28:57.011Z,50.10
2023-04-29T16:31:28.455Z,49.90
2023-04-29T16:33:58.693Z,50.36
2023-04-29T16:36:28.856Z,51.02
2023-04-29T16:38:59.294Z,51.42
2023-04-29T16:41:30.823Z,51.77
2023-04-29T16:44:01.612Z,52.08
2023-04-29T16:46:32.713Z,51.94
2023-04-29T16:49:03.275Z,52.33
2023-04-29T16:51:36.260Z,52.84
2023-04-29T16:54:08.200Z,53.05
2023-04-29T16:56:38.359Z,53.06
2023-04-29T16:59:08.656Z,53.27
2023-04-29T17:01:39.622Z,53.38
2023-04-29T17:04:11.101Z,53.92
2023-04-29T17:06:41.628Z,54.50
2023-04-29T17:09:12.322Z,54.82
2023-04-29T17:11:42.600Z,54.79
2023-04-29T17:14:12.634Z,55.44
2023-04-29T17:16:42.786Z,55.71
2023-04-29T17:19:12.912Z,56.08
2023-04-29T17:21:43.533Z,56.24
2023-04-29T17:24:13.701Z,56.37
2023-04-29T17:26:43.849Z,56.21
2023-04-29T17:29:14.032Z,56.31
2023-04-29T17:31:54.138Z,57.01
2023-04-29T17:34:25.735Z,57.15
2023-04-29T17:36:55.925Z,57.29
2023-04-29T17:39:26.202Z,57.38
2023-04-29T17:41:56.581Z,57.72
2023-04-29T17:44:26.903Z,57.86
2023-04-29T17:46:57.091Z,58.25
2023-04-29T17:49:27.181Z,58.25
2023-04-29T17:51:57.329Z,58.38
2023-04-29T17:54:29.309Z,58.82
2023-04-29T17:57:02.360Z,58.97
2023-04-29T17:59:32.524Z,58.85
2023-04-29T18:02:02.572Z,59.24
2023-04-29T18:04:32.812Z,59.48
2023-04-29T18:07:03.139Z,59.77
2023-04-29T18:09:34.841Z,59.91
2023-04-29T18:12:05.630Z,59.79
2023-04-29T18:14:35.824Z,60.05
2023-04-29T18:17:06.139Z,60.67
2023-04-29T18:19:36.322Z,60.41
2023-04-29T18:22:06.487Z,60.39
2023-04-29T18:24:36.698Z,60.51
2023-04-29T18:27:06.994Z,60.39
2023-04-29T18:29:37.150Z,60.51
2023-04-29T18:32:08.268Z,60.49
2023-04-29T18:34:38.606Z,60.51
2023-04-29T18:37:08.890Z,60.67
2023-04-29T18:39:39.477Z,60.84
2023-04-29T18:42:09.631Z,60.85
2023-04-29T18:44:40.228Z,61.07
2023-04-29T18:47:27.453Z,61.05
2023-04-29T18:49:57.899Z,61.33
2023-04-29T18:52:28.245Z,61.54
2023-04-29T18:54:58.368Z,61.37
2023-04-29T18:57:28.553Z,61.48
2023-04-29T18:59:58.695Z,61.26
2023-04-29T19:02:28.976Z,61.46
2023-04-29T19:05:03.973Z,61.72
2023-04-29T19:07:34.450Z,61.65
2023-04-29T19:10:06.006Z,61.61
2023-04-29T19:12:36.147Z,61.77
2023-04-29T19:15:08.781Z,61.71
2023-04-29T19:17:39.178Z,61.50
2023-04-29T19:20:12.976Z,61.48
2023-04-29T19:23:57.369Z,63.54
2023-04-29T19:26:44.985Z,62.86
2023-04-29T19:29:25.143Z,61.62
2023-04-29T19:31:55.590Z,60.90
2023-04-29T19:34:39.016Z,60.93
2023-04-29T19:37:10.169Z,60.90
2023-04-29T19:39:40.532Z,61.16
2023-04-29T19:42:11.231Z,61.56
2023-04-29T19:44:44.860Z,61.76
2023-04-29T19:47:15.874Z,62.14
2023-04-29T19:49:49.254Z,62.57
2023-04-29T19:52:19.652Z,62.45
2023-04-29T19:56:02.758Z,64.87
2023-04-29T19:58:37.375Z,62.63
2023-04-29T20:01:28.396Z,65.60
2023-04-29T20:03:58.729Z,62.90
2023-04-29T20:06:34.272Z,62.64
2023-04-29T20:09:07.991Z,62.85
2023-04-29T20:12:04.224Z,64.79
2023-04-29T20:14:34.758Z,62.63
2023-04-29T20:17:05.235Z,62.63
2023-04-29T20:20:02.647Z,65.05
2023-04-29T20:24:04.953Z,65.70
2023-04-29T20:26:49.229Z,63.88
2023-04-29T20:29:19.600Z,63.27
2023-04-29T20:31:59.261Z,64.94
2023-04-29T20:34:30.121Z,63.38
2023-04-29T20:37:30.587Z,63.65
2023-04-29T20:40:06.636Z,63.37
2023-04-29T20:44:12.006Z,66.41
2023-04-29T20:46:39.051Z,63.92
2023-04-29T20:50:10.619Z,67.13
2023-04-29T20:56:01.133Z,65.70
2023-04-29T20:59:47.933Z,66.58
2023-04-29T21:03:12.389Z,66.77
2023-04-29T21:06:04.644Z,63.60
2023-04-29T21:08:57.578Z,66.12
2023-04-29T21:11:44.754Z,65.08
2023-04-29T21:18:10.941Z,63.75
2023-04-29T21:21:31.697Z,67.18
2023-04-29T21:24:02.290Z,62.42
2023-04-29T21:26:45.517Z,64.22
2023-04-29T21:29:26.651Z,62.54
2023-04-29T21:32:05.303Z,62.37
2023-04-29T21:34:44.735Z,62.18
2023-04-29T21:37:50.358Z,63.38
2023-04-29T21:40:22.929Z,62.27
2023-04-29T21:43:02.245Z,62.89
2023-04-29T21:45:36.353Z,62.02
2023-04-29T21:48:15.338Z,62.42
2023-04-29T21:51:11.819Z,62.09
2023-04-29T21:53:48.291Z,61.41
2023-04-29T21:56:22.993Z,60.79
2023-04-29T21:58:53.748Z,60.69
2023-04-29T22:01:30.300Z,61.12
2023-04-29T22:04:00.566Z,60.55
2023-04-29T22:06:31.722Z,60.59
2023-04-29T22:09:02.889Z,60.52
2023-04-29T22:11:47.655Z,61.13
2023-04-29T22:14:20.657Z,59.91
2023-04-29T22:16:53.116Z,59.46
2023-04-29T22:19:23.661Z,59.63
2023-04-29T22:30:18.010Z,58.60
2023-04-29T22:33:32.449Z,60.08
2023-04-29T22:36:32.974Z,59.94
2023-04-29T22:39:12.250Z,58.67
2023-04-29T22:42:16.684Z,59.02
2023-04-29T22:44:49.517Z,58.19
2023-04-29T22:48:27.442Z,59.83
2023-04-29T22:51:22.479Z,58.87
2023-04-29T22:53:58.664Z,58.55
2023-04-29T22:57:17.839Z,59.15
2023-04-29T22:59:53.204Z,58.18
2023-04-29T23:02:29.800Z,58.50
2023-04-29T23:05:00.109Z,60.05
2023-04-29T23:07:30.351Z,57.94
2023-04-29T23:10:00.642Z,58.42
2023-04-29T23:12:30.813Z,58.06
2023-04-29T23:15:00.962Z,57.65
2023-04-29T23:17:31.075Z,57.82
2023-04-29T23:20:01.233Z,58.15
2023-04-29T23:22:31.601Z,57.87
2023-04-29T23:25:01.790Z,57.89
2023-04-29T23:27:32.002Z,57.12
2023-04-29T23:30:02.852Z,57.42
2023-04-29T23:32:33.090Z,57.09
2023-04-29T23:35:03.416Z,57.23
2023-04-29T23:37:33.722Z,56.87
2023-04-29T23:40:06.122Z,57.17
2023-04-29T23:42:36.286Z,57.08
2023-04-29T23:45:06.994Z,57.20
2023-04-29T23:47:37.333Z,57.10
2023-04-29T23:50:08.100Z,57.09
2023-04-29T23:52:38.295Z,56.92
2023-04-29T23:55:09.201Z,56.73
2023-04-29T23:57:39.312Z,57.04
